KEMP/EMP METAR and TAF weather

Enter ICAO airport designator
Station Type Date Time Source
KEMP METAR 2021/02/25 01:53 UTC NOAA

KEMP 250153Z AUTO 03006KT 10SM CLR 01/M03 A3028 RMK AO2 SLP266 T00111028


Station Type Date Time Source
KEMP Decoded METAR 2021/02/25 01:53 UTC NOAA

EMPORIA MUNICIPAL AIRPORT, KS, United States (KEMP) 38-20N 96-12W 367M
Feb 24, 2021 - 08:53 PM EST / 2021.02.25 0153 UTC
Wind: from the NNE (030 degrees) at 7 MPH (6 KT):0
Visibility: 10 mile(s):0
Sky conditions: clear
Temperature: 34.0 F (1.1 C)
Windchill: 28 F (-2 C):1
Dew Point: 27.0 F (-2.8 C)
Relative Humidity: 75%
Pressure (altimeter): 30.28 in. Hg (1025 hPa)
ob: KEMP 250153Z AUTO 03006KT 10SM CLR 01/M03 A3028 RMK AO2 SLP266 T00111028
cycle: 2

Station Type Date Time Source
KEMP TAF UTC NOAA

Error!

Example: see airport list